Time;durP1;ratioP1;P1;durP2;ratioP2;P2;SDS_P1;SDS_P2;PMS_P1;PMS_P2;Temp;Humidity;BMP_temperature;BMP_pressure;BME280_temperature;BME280_humidity;BME280_pressure;Samples;Min_cycle;Max_cycle;Signal;HPM_P1;HPM_P2
2021/05/06 00:04:37;;;;;;;2.45;1.38;;;6.90;99.90;;;;;;5040535;28;20022;-78
2021/05/06 00:33:01;;;;;;;2.28;1.10;;;7.10;99.90;;;;;;5049173;28;20033;-77
2021/05/06 00:35:28;;;;;;;1.88;0.93;;;7.10;99.90;;;;;;5044128;28;20025;-78
2021/05/06 00:38:01;;;;;;;2.72;1.27;;;7.20;99.90;;;;;;5042790;28;20026;-77
2021/05/06 01:04:22;;;;;;;1.40;1.13;;;7.10;99.90;;;;;;5045928;28;20025;-78
2021/05/06 01:07:19;;;;;;;1.25;0.93;;;7.20;99.90;;;;;;5041543;28;20029;-78
2021/05/06 01:10:09;;;;;;;1.65;1.08;;;7.20;99.90;;;;;;5035399;28;20472;-77
2021/05/06 01:12:35;;;;;;;3.33;1.17;;;7.10;99.90;;;;;;5034548;28;20048;-78
2021/05/06 01:15:01;;;;;;;1.40;1.23;;;7.20;99.90;;;;;;5045579;28;20029;-78
2021/05/06 01:17:26;;;;;;;2.15;1.95;;;7.10;99.90;;;;;;5056762;28;20017;-77
2021/05/06 01:19:52;;;;;;;2.95;1.10;;;7.10;99.90;;;;;;5044711;28;20025;-79
2021/05/06 01:22:18;;;;;;;1.58;1.10;;;7.10;99.90;;;;;;5043843;28;20048;-79
2021/05/06 01:24:49;;;;;;;1.40;1.08;;;7.10;99.90;;;;;;5037991;28;20034;-78
2021/05/06 01:27:19;;;;;;;2.03;1.50;;;7.10;99.90;;;;;;5038965;28;20014;-78
2021/05/06 01:34:40;;;;;;;2.97;1.25;;;7.20;99.90;;;;;;5041509;28;20085;-78
2021/05/06 01:37:13;;;;;;;3.38;1.30;;;7.20;99.90;;;;;;5047329;28;20022;-77
2021/05/06 01:40:36;;;;;;;3.15;1.48;;;7.30;99.90;;;;;;5051213;28;20105;-78
2021/05/06 01:42:48;;;;;;;1.33;1.20;;;7.30;99.90;;;;;;5035731;28;20014;-78
2021/05/06 01:48:08;;;;;;;1.40;1.00;;;7.20;99.90;;;;;;5049414;28;20092;-77
2021/05/06 01:58:35;;;;;;;4.68;2.00;;;7.20;99.90;;;;;;5042758;28;20033;-75
2021/05/06 02:01:04;;;;;;;1.33;0.98;;;7.40;99.90;;;;;;5047760;28;20029;-76
2021/05/06 02:03:29;;;;;;;3.17;1.30;;;7.40;99.90;;;;;;5041321;28;20484;-77
2021/05/06 02:05:55;;;;;;;1.83;1.30;;;7.40;99.90;;;;;;5046830;28;20035;-77
2021/05/06 02:08:22;;;;;;;2.75;1.25;;;7.40;99.90;;;;;;5043008;28;20055;-78
2021/05/06 02:10:48;;;;;;;2.60;1.23;;;7.50;99.90;;;;;;5044018;28;20029;-78
2021/05/06 02:13:15;;;;;;;2.40;1.27;;;7.40;99.90;;;;;;5047289;28;20013;-76
2021/05/06 02:15:44;;;;;;;2.50;1.58;;;7.50;99.90;;;;;;5057536;28;20032;-76
2021/05/06 02:18:12;;;;;;;2.90;1.20;;;7.40;99.90;;;;;;5048718;28;20049;-78
2021/05/06 02:20:39;;;;;;;3.15;1.33;;;7.40;99.90;;;;;;5040268;28;20018;-76
2021/05/06 02:23:05;;;;;;;4.43;1.45;;;7.40;99.90;;;;;;5057713;28;20014;-76
2021/05/06 02:25:31;;;;;;;1.75;1.20;;;7.40;99.90;;;;;;5057582;28;20046;-76
2021/05/06 02:27:57;;;;;;;4.15;1.58;;;7.60;99.90;;;;;;5044663;28;20029;-77
2021/05/06 02:30:23;;;;;;;2.92;1.38;;;7.60;99.90;;;;;;5056562;28;20017;-76
2021/05/06 02:32:49;;;;;;;2.78;1.42;;;7.50;99.90;;;;;;5048275;28;20502;-76
2021/05/06 02:35:14;;;;;;;3.70;1.42;;;7.40;99.90;;;;;;5048326;28;20041;-77
2021/05/06 02:37:41;;;;;;;5.22;1.67;;;7.40;99.90;;;;;;5055340;28;20030;-78
2021/05/06 02:40:08;;;;;;;3.72;1.48;;;7.40;99.90;;;;;;5054403;28;20029;-77
2021/05/06 02:42:34;;;;;;;2.92;1.27;;;7.40;99.90;;;;;;5053357;28;20041;-78
2021/05/06 02:45:00;;;;;;;3.88;1.70;;;7.40;99.90;;;;;;5052649;28;20477;-78
2021/05/06 02:47:27;;;;;;;3.58;1.50;;;7.40;99.90;;;;;;5053841;28;20022;-78
2021/05/06 02:49:52;;;;;;;2.47;1.60;;;7.40;99.90;;;;;;5052637;28;20018;-76
2021/05/06 02:54:52;;;;;;;2.67;1.38;;;7.40;99.90;;;;;;5054123;28;20056;-78
2021/05/06 03:02:48;;;;;;;1.55;1.20;;;7.40;99.90;;;;;;5052167;28;20024;-76
2021/05/06 03:05:14;;;;;;;3.42;1.88;;;7.40;99.90;;;;;;5054814;28;20093;-77
2021/05/06 03:07:43;;;;;;;3.40;1.58;;;7.40;99.90;;;;;;5045628;28;20539;-78
2021/05/06 03:10:21;;;;;;;4.50;1.33;;;7.40;99.90;;;;;;5038069;28;20021;-77
2021/05/06 03:13:06;;;;;;;5.72;1.63;;;7.40;99.90;;;;;;5038722;28;20021;-77
2021/05/06 03:23:38;;;;;;;6.47;2.05;;;7.40;99.90;;;;;;5037237;28;20500;-77
2021/05/06 03:26:04;;;;;;;2.55;1.40;;;7.40;99.90;;;;;;5036348;28;20028;-77
2021/05/06 03:28:40;;;;;;;3.28;1.55;;;7.30;99.90;;;;;;5036612;28;20053;-78
2021/05/06 04:16:56;;;;;;;2.28;1.77;;;6.40;1.00;;;;;;5042223;28;20507;-77
2021/05/06 04:27:23;;;;;;;3.53;1.70;;;6.40;1.00;;;;;;5041716;28;20021;-78
2021/05/06 04:30:09;;;;;;;4.28;1.52;;;6.50;1.00;;;;;;5035103;28;20037;-79
2021/05/06 04:37:55;;;;;;;3.75;1.80;;;6.50;1.00;;;;;;5034079;28;20028;-78
2021/05/06 05:07:12;;;;;;;4.10;1.80;;;7.90;99.90;;;;;;5026009;28;20374;-75
2021/05/06 05:12:40;;;;;;;4.13;2.10;;;8.30;99.90;;;;;;5039662;28;20057;-78
2021/05/06 05:27:58;;;;;;;3.92;2.50;;;8.70;99.90;;;;;;5056529;28;20038;-79
2021/05/06 05:30:26;;;;;;;2.72;1.95;;;8.60;99.90;;;;;;5045652;28;20029;-81
2021/05/06 05:32:52;;;;;;;5.45;2.13;;;8.60;99.90;;;;;;5046927;28;20038;-81
2021/05/06 05:35:31;;;;;;;3.55;2.00;;;8.50;99.90;;;;;;5047085;28;20022;-79
2021/05/06 05:38:13;;;;;;;3.95;2.55;;;8.50;99.90;;;;;;5047378;28;20468;-81
2021/05/06 05:54:32;;;;;;;2.65;1.60;;;8.30;99.90;;;;;;5048669;28;20032;-78
2021/05/06 05:57:09;;;;;;;;;;;8.40;99.90;;;;;;5021720;28;20045;-81
2021/05/06 05:59:36;;;;;;;3.53;1.90;;;8.40;99.90;;;;;;5015505;28;19996;-82
2021/05/06 06:02:01;;;;;;;4.28;1.90;;;8.30;99.90;;;;;;5022494;28;20536;-81
2021/05/06 06:04:27;;;;;;;4.10;1.90;;;8.30;99.90;;;;;;5022915;28;20108;-82
2021/05/06 06:06:52;;;;;;;4.45;1.88;;;8.30;99.90;;;;;;5024250;28;20045;-80
2021/05/06 06:09:18;;;;;;;3.22;1.92;;;8.20;99.90;;;;;;5023566;28;20030;-81
2021/05/06 06:11:44;;;;;;;4.10;2.05;;;8.20;99.90;;;;;;5023267;28;20014;-82
2021/05/06 06:14:10;;;;;;;3.65;1.83;;;8.30;99.90;;;;;;5023866;28;20083;-83
2021/05/06 06:16:39;;;;;;;2.78;1.40;;;8.20;99.90;;;;;;5034866;28;20018;-82
2021/05/06 06:19:05;;;;;;;2.75;1.77;;;8.20;99.90;;;;;;5037644;28;20014;-83
2021/05/06 06:24:03;;;;;;;3.17;1.50;;;8.10;99.90;;;;;;5022744;28;20029;-82
2021/05/06 06:26:29;;;;;;;2.90;1.83;;;8.10;99.90;;;;;;5025242;28;20061;-81
2021/05/06 06:29:02;;;;;;;2.92;1.60;;;8.10;99.90;;;;;;5022041;28;20056;-81
2021/05/06 06:31:32;;;;;;;1.98;1.67;;;8.00;99.90;;;;;;5023152;28;20029;-82
2021/05/06 06:33:58;;;;;;;4.75;2.13;;;8.00;99.90;;;;;;5023516;28;20022;-83
2021/05/06 06:36:24;;;;;;;4.28;1.60;;;8.00;99.90;;;;;;5021576;28;20474;-82
2021/05/06 06:38:50;;;;;;;5.50;1.98;;;8.00;99.90;;;;;;5021118;28;20072;-82
2021/05/06 06:41:16;;;;;;;6.07;1.88;;;8.00;99.90;;;;;;5028463;28;20022;-83
2021/05/06 06:43:48;;;;;;;5.43;2.10;;;8.00;99.90;;;;;;5030043;28;20022;-80
2021/05/06 06:46:15;;;;;;;5.35;2.00;;;8.00;99.90;;;;;;5025356;28;20038;-81
2021/05/06 06:48:41;;;;;;;2.05;1.60;;;8.00;99.90;;;;;;5028847;28;20032;-81
2021/05/06 06:51:12;;;;;;;3.65;1.73;;;8.10;99.90;;;;;;5031519;28;20042;-82
2021/05/06 06:53:38;;;;;;;3.40;1.67;;;8.20;99.90;;;;;;5031917;28;20497;-81
2021/05/06 06:56:04;;;;;;;3.45;1.73;;;8.20;99.90;;;;;;5023309;28;20092;-82
2021/05/06 06:58:30;;;;;;;4.45;1.73;;;8.20;99.90;;;;;;5021742;28;20019;-82
2021/05/06 07:00:57;;;;;;;5.28;2.20;;;8.20;99.90;;;;;;5010629;28;20080;-82
2021/05/06 07:03:23;;;;;;;6.68;2.03;;;8.30;99.90;;;;;;5023805;28;20026;-81
2021/05/06 07:05:49;;;;;;;6.53;2.05;;;8.30;99.90;;;;;;5023384;28;20022;-82
2021/05/06 07:08:28;;;;;;;3.88;1.70;;;8.40;99.90;;;;;;5024556;28;20029;-81
2021/05/06 07:16:41;;;;;;;3.90;2.03;;;8.50;99.90;;;;;;5114627;23;20618;-81
2021/05/06 07:19:07;;;;;;;4.30;2.00;;;8.60;99.90;;;;;;5041168;28;20033;-79
2021/05/06 07:21:33;;;;;;;8.13;2.20;;;8.60;99.90;;;;;;5048646;28;20021;-80
2021/05/06 07:23:59;;;;;;;4.38;1.85;;;8.70;99.90;;;;;;5055388;28;20036;-81
2021/05/06 07:26:25;;;;;;;3.15;1.60;;;8.80;99.90;;;;;;5050667;28;20025;-81
2021/05/06 07:28:53;;;;;;;5.40;1.83;;;8.80;99.90;;;;;;5052217;28;20056;-82
2021/05/06 07:31:19;;;;;;;4.97;2.08;;;9.00;99.90;;;;;;5048223;28;20021;-81
2021/05/06 07:33:49;;;;;;;7.95;2.13;;;8.90;99.90;;;;;;5055919;28;20033;-82
2021/05/06 07:36:17;;;;;;;4.57;2.13;;;8.90;99.90;;;;;;5052059;28;20021;-82
2021/05/06 07:38:44;;;;;;;6.03;2.08;;;8.90;99.90;;;;;;5055381;28;20021;-83
2021/05/06 07:41:12;;;;;;;7.70;2.08;;;9.10;99.90;;;;;;5054711;28;20029;-81
2021/05/06 07:43:45;;;;;;;1.90;1.55;;;9.20;99.90;;;;;;5055592;28;20037;-84
2021/05/06 07:46:11;;;;;;;3.38;1.77;;;9.40;99.90;;;;;;5054834;28;20021;-82
2021/05/06 07:48:37;;;;;;;6.82;2.83;;;9.40;99.90;;;;;;5054483;28;20025;-82
2021/05/06 07:51:03;;;;;;;2.78;1.48;;;9.60;99.90;;;;;;5051022;28;20435;-82
2021/05/06 07:56:28;;;;;;;3.22;1.50;;;9.60;99.90;;;;;;5030538;28;20041;-82
2021/05/06 07:58:54;;;;;;;5.85;2.72;;;9.70;99.90;;;;;;5049530;28;20044;-83
2021/05/06 08:01:20;;;;;;;7.85;1.88;;;9.90;99.90;;;;;;5054876;28;20033;-81
2021/05/06 08:03:45;;;;;;;3.83;1.60;;;10.00;99.90;;;;;;5058604;28;20045;-80
2021/05/06 08:06:13;;;;;;;5.88;1.92;;;10.00;99.90;;;;;;5059437;28;20021;-81
2021/05/06 08:08:39;;;;;;;3.60;1.73;;;10.10;99.90;;;;;;5059726;28;20020;-82
2021/05/06 08:11:08;;;;;;;2.75;1.63;;;10.10;99.90;;;;;;5060183;28;20093;-81
2021/05/06 08:13:33;;;;;;;5.25;2.13;;;10.20;99.90;;;;;;5059041;28;20028;-81
2021/05/06 08:15:59;;;;;;;7.55;1.73;;;10.20;99.90;;;;;;5055797;28;20060;-82
2021/05/06 08:18:25;;;;;;;5.15;1.60;;;10.30;99.90;;;;;;5053593;28;20044;-82
2021/05/06 08:20:51;;;;;;;3.28;1.50;;;10.40;99.90;;;;;;5045149;28;20021;-83
2021/05/06 08:23:17;;;;;;;4.15;1.67;;;10.30;99.90;;;;;;5043883;28;20037;-81
2021/05/06 08:25:43;;;;;;;6.35;1.90;;;10.30;95.10;;;;;;5045743;28;20017;-82
2021/05/06 08:28:09;;;;;;;4.65;1.67;;;10.20;72.80;;;;;;5045466;28;20021;-82
2021/05/06 08:30:35;;;;;;;4.07;1.98;;;10.20;89.90;;;;;;5045333;28;20029;-82
2021/05/06 08:33:02;;;;;;;6.22;2.13;;;10.10;95.60;;;;;;5045259;28;20021;-82
2021/05/06 08:35:28;;;;;;;5.20;2.90;;;10.20;99.90;;;;;;5045582;28;20036;-83
2021/05/06 08:37:54;;;;;;;4.20;2.17;;;10.20;99.90;;;;;;5044217;28;20063;-83
2021/05/06 08:40:21;;;;;;;5.47;1.92;;;10.10;99.90;;;;;;5045974;28;20454;-83
2021/05/06 08:42:50;;;;;;;4.10;1.50;;;10.10;99.90;;;;;;5047101;28;20056;-83
2021/05/06 08:45:15;;;;;;;3.42;1.60;;;10.10;99.90;;;;;;5046614;28;20013;-82
2021/05/06 08:47:44;;;;;;;4.78;1.90;;;10.00;93.20;;;;;;5044115;28;20025;-82
2021/05/06 08:50:10;;;;;;;3.63;1.42;;;10.00;99.90;;;;;;5045603;28;20584;-82
2021/05/06 08:52:39;;;;;;;4.05;1.33;;;10.00;99.90;;;;;;5046788;28;20022;-81
2021/05/06 08:55:05;;;;;;;4.22;1.60;;;10.00;99.90;;;;;;5046881;28;20485;-82
2021/05/06 08:57:34;;;;;;;5.78;1.60;;;10.10;99.90;;;;;;5050930;28;20036;-82
2021/05/06 09:00:00;;;;;;;6.97;1.77;;;10.10;99.90;;;;;;5034207;28;20086;-82
2021/05/06 09:02:25;;;;;;;3.08;1.25;;;10.10;99.90;;;;;;5045340;28;20026;-83
2021/05/06 09:04:51;;;;;;;3.05;1.70;;;10.10;99.90;;;;;;5047208;28;20033;-82
2021/05/06 09:07:17;;;;;;;3.33;1.50;;;10.00;99.90;;;;;;5047594;28;20040;-83
2021/05/06 09:09:51;;;;;;;3.83;1.70;;;10.00;99.90;;;;;;5038308;28;20040;-81
2021/05/06 09:12:19;;;;;;;3.83;1.35;;;10.00;99.90;;;;;;5054569;28;20081;-82
2021/05/06 09:14:47;;;;;;;5.75;1.60;;;10.00;99.90;;;;;;5046585;28;20017;-83
2021/05/06 09:17:27;;;;;;;4.60;1.50;;;10.00;99.90;;;;;;5047973;28;20080;-81
2021/05/06 09:20:05;;;;;;;3.47;1.73;;;10.00;99.90;;;;;;5047970;28;20018;-83
2021/05/06 09:22:51;;;;;;;7.13;1.52;;;10.10;99.90;;;;;;5046827;28;20021;-82
2021/05/06 09:25:30;;;;;;;5.18;1.95;;;10.10;99.90;;;;;;5045838;28;20029;-83
2021/05/06 09:28:11;;;;;;;5.63;1.80;;;10.00;99.90;;;;;;5047477;28;20017;-84
2021/05/06 09:31:01;;;;;;;4.00;1.52;;;10.10;99.90;;;;;;5050035;28;20022;-81
2021/05/06 09:33:35;;;;;;;4.57;1.80;;;10.10;99.90;;;;;;5048295;28;20503;-81
2021/05/06 09:36:14;;;;;;;4.25;1.60;;;10.10;99.90;;;;;;5053106;28;20047;-83
2021/05/06 09:38:54;;;;;;;5.32;2.08;;;10.10;99.90;;;;;;5048651;28;20404;-82
2021/05/06 09:41:22;;;;;;;8.20;1.65;;;10.20;99.90;;;;;;5048530;28;20026;-82
2021/05/06 09:43:48;;;;;;;6.38;1.90;;;10.20;99.90;;;;;;5047239;28;20037;-81
2021/05/06 09:49:38;;;;;;;5.28;2.30;;;10.30;99.90;;;;;;5040491;28;20041;-82
2021/05/06 09:52:04;;;;;;;8.02;2.15;;;10.40;99.90;;;;;;5046626;28;20434;-83
2021/05/06 09:54:31;;;;;;;10.35;2.17;;;10.50;99.90;;;;;;5045470;28;20088;-83
2021/05/06 09:57:01;;;;;;;4.18;2.17;;;10.50;99.90;;;;;;5046551;28;20025;-83
2021/05/06 09:59:33;;;;;;;5.95;2.40;;;10.50;99.90;;;;;;5045213;28;20033;-82
2021/05/06 10:02:11;;;;;;;4.35;1.75;;;10.60;99.90;;;;;;5043397;28;20093;-82
2021/05/06 10:04:40;;;;;;;5.03;2.35;;;10.50;99.90;;;;;;5047874;28;20021;-80
2021/05/06 10:07:25;;;;;;;13.48;3.35;;;10.60;99.90;;;;;;5047442;28;20014;-81
2021/05/06 10:09:55;;;;;;;10.18;3.60;;;10.70;99.90;;;;;;5051694;28;20022;-82
2021/05/06 10:12:24;;;;;;;7.00;2.23;;;10.70;99.90;;;;;;5045591;28;20052;-83
2021/05/06 10:14:50;;;;;;;7.63;2.83;;;10.60;99.90;;;;;;5048081;28;20021;-82
2021/05/06 10:17:18;;;;;;;5.78;2.08;;;10.60;99.90;;;;;;5046624;28;20021;-82
2021/05/06 10:19:44;;;;;;;3.80;2.20;;;10.70;99.90;;;;;;5045439;28;20021;-83
2021/05/06 10:22:13;;;;;;;5.35;1.88;;;10.70;99.90;;;;;;5046839;28;20021;-82
2021/05/06 10:24:46;;;;;;;5.80;2.03;;;10.70;99.90;;;;;;5050206;28;20032;-83
2021/05/06 10:27:18;;;;;;;9.48;2.10;;;10.80;99.90;;;;;;5057734;28;20038;-82
2021/05/06 10:29:44;;;;;;;5.13;1.77;;;10.80;99.90;;;;;;5058031;28;20021;-83
2021/05/06 10:32:12;;;;;;;2.83;1.52;;;10.80;99.90;;;;;;5057973;28;20013;-83
2021/05/06 10:34:41;;;;;;;5.07;1.92;;;10.90;99.90;;;;;;5055278;28;20029;-82
2021/05/06 10:37:07;;;;;;;6.70;2.28;;;10.70;99.90;;;;;;5050437;28;20022;-82
2021/05/06 10:39:44;;;;;;;5.75;1.90;;;10.80;99.90;;;;;;5053416;28;20057;-83
2021/05/06 10:42:25;;;;;;;5.35;1.63;;;10.60;99.90;;;;;;5057101;28;20013;-81
2021/05/06 10:44:58;;;;;;;3.38;1.58;;;10.60;99.90;;;;;;5057259;28;20020;-83
2021/05/06 10:47:46;;;;;;;3.60;1.30;;;10.60;99.90;;;;;;5053866;28;20029;-83
2021/05/06 10:50:32;;;;;;;2.42;1.13;;;10.40;99.90;;;;;;5057806;28;20029;-80
2021/05/06 10:52:57;;;;;;;4.40;1.55;;;10.30;99.90;;;;;;5057610;28;20018;-83
2021/05/06 10:55:43;;;;;;;8.82;2.25;;;10.30;99.90;;;;;;5058580;28;20018;-83
2021/05/06 10:58:29;;;;;;;3.90;1.70;;;10.40;99.90;;;;;;5058655;28;20028;-82
2021/05/06 11:01:05;;;;;;;4.68;1.52;;;10.40;99.90;;;;;;5047238;28;20022;-83
2021/05/06 11:03:32;;;;;;;2.47;1.58;;;10.50;99.90;;;;;;5043353;28;20026;-81
2021/05/06 11:05:58;;;;;;;2.28;1.40;;;10.60;99.90;;;;;;5031995;28;20057;-81
2021/05/06 11:08:29;;;;;;;4.45;1.63;;;10.60;99.90;;;;;;5029482;28;20489;-83
2021/05/06 11:11:01;;;;;;;10.65;3.22;;;10.70;99.90;;;;;;5031637;28;20053;-84
2021/05/06 11:13:29;;;;;;;4.68;1.50;;;10.70;99.90;;;;;;5032448;28;20521;-82
2021/05/06 11:16:18;;;;;;;5.25;1.30;;;10.70;99.90;;;;;;5029905;28;20037;-82
2021/05/06 11:18:52;;;;;;;7.50;1.52;;;10.70;99.90;;;;;;5036195;28;20026;-83
2021/05/06 11:21:29;;;;;;;2.97;1.35;;;10.80;99.90;;;;;;5032495;28;20021;-84
2021/05/06 11:24:20;;;;;;;2.65;1.25;;;10.90;99.90;;;;;;5031588;28;20101;-83
2021/05/06 11:27:20;;;;;;;2.03;1.00;;;11.00;99.90;;;;;;5034503;28;20034;-81
2021/05/06 11:29:46;;;;;;;2.08;1.20;;;10.90;99.90;;;;;;5022131;28;20022;-81
2021/05/06 11:32:24;;;;;;;3.17;1.35;;;11.10;99.90;;;;;;5039911;28;20045;-83
2021/05/06 11:34:55;;;;;;;2.08;1.00;;;11.10;99.90;;;;;;5037912;28;20497;-84
2021/05/06 11:37:29;;;;;;;2.25;0.88;;;11.00;99.90;;;;;;5033086;28;20045;-84
2021/05/06 11:40:00;;;;;;;1.20;0.98;;;11.00;99.90;;;;;;5033914;28;20034;-82
2021/05/06 11:42:28;;;;;;;1.52;0.93;;;11.00;99.90;;;;;;5031190;28;20053;-82
2021/05/06 11:45:21;;;;;;;1.42;0.98;;;11.10;99.90;;;;;;5030961;28;20125;-84
2021/05/06 11:47:47;;;;;;;2.55;0.90;;;11.10;99.90;;;;;;5031681;28;20021;-83
2021/05/06 11:50:23;;;;;;;4.07;1.27;;;11.10;99.90;;;;;;5031889;28;20030;-83
2021/05/06 11:52:49;;;;;;;4.65;1.27;;;11.10;99.90;;;;;;5031161;28;20104;-82
2021/05/06 11:55:38;;;;;;;2.28;1.10;;;11.30;99.90;;;;;;5019910;28;20395;-83
2021/05/06 11:58:03;;;;;;;4.32;0.90;;;11.20;99.90;;;;;;5032314;28;20076;-82
2021/05/06 12:00:31;;;;;;;1.70;0.90;;;11.20;99.90;;;;;;5051562;28;20029;-83
2021/05/06 12:03:05;;;;;;;0.80;0.60;;;11.20;99.90;;;;;;5034472;28;20060;-84
2021/05/06 12:05:57;;;;;;;2.10;0.95;;;11.20;99.90;;;;;;5031346;28;20025;-83
2021/05/06 12:08:29;;;;;;;1.25;0.70;;;11.10;99.90;;;;;;5028236;28;20057;-83
2021/05/06 12:10:57;;;;;;;1.95;0.77;;;10.90;99.90;;;;;;5028419;28;20029;-83
2021/05/06 12:13:28;;;;;;;1.90;0.93;;;10.90;99.90;;;;;;5029325;28;20026;-80
2021/05/06 12:16:09;;;;;;;1.70;1.10;;;11.00;99.90;;;;;;5036144;28;20037;-83
2021/05/06 12:18:35;;;;;;;1.67;0.75;;;11.00;99.90;;;;;;5029630;28;20026;-83
2021/05/06 12:21:04;;;;;;;1.35;0.80;;;10.90;99.90;;;;;;5028438;28;20029;-82
2021/05/06 12:23:30;;;;;;;2.55;1.00;;;11.00;99.90;;;;;;5029028;28;20081;-81
2021/05/06 12:25:56;;;;;;;1.25;1.08;;;10.90;99.90;;;;;;5035283;28;20013;-83
2021/05/06 12:28:21;;;;;;;3.15;1.52;;;11.00;99.90;;;;;;5035422;28;20022;-82
2021/05/06 12:30:47;;;;;;;3.25;0.80;;;11.00;99.90;;;;;;5034152;28;20029;-82
2021/05/06 12:33:27;;;;;;;1.00;0.57;;;11.10;99.90;;;;;;5031753;28;20097;-83
2021/05/06 12:35:53;;;;;;;0.90;0.65;;;11.10;96.60;;;;;;5030929;28;20033;-83
2021/05/06 12:38:19;;;;;;;1.98;0.70;;;11.10;99.90;;;;;;5013603;28;20097;-81
2021/05/06 12:40:45;;;;;;;1.23;1.00;;;11.10;99.90;;;;;;5029447;28;20037;-82
2021/05/06 12:43:23;;;;;;;0.80;0.80;;;11.10;99.90;;;;;;5029405;28;20022;-82
2021/05/06 12:46:07;;;;;;;0.90;0.70;;;11.10;99.90;;;;;;5031067;28;20030;-83
2021/05/06 12:48:52;;;;;;;0.93;0.80;;;11.00;99.90;;;;;;5034703;28;20022;-83
2021/05/06 12:51:19;;;;;;;1.17;0.90;;;10.80;99.90;;;;;;5036228;28;20077;-81
2021/05/06 12:54:00;;;;;;;1.70;0.77;;;10.90;99.90;;;;;;5036288;28;20061;-84
2021/05/06 12:56:29;;;;;;;1.40;0.93;;;10.70;99.90;;;;;;5030024;28;20098;-83
2021/05/06 12:59:01;;;;;;;1.30;1.00;;;10.60;99.90;;;;;;5034738;28;20021;-83
2021/05/06 13:01:31;;;;;;;4.60;1.15;;;10.60;99.90;;;;;;5039974;28;20022;-82
2021/05/06 13:04:02;;;;;;;2.13;1.05;;;10.50;99.90;;;;;;5054954;28;20029;-81
2021/05/06 13:06:32;;;;;;;0.60;0.60;;;10.60;99.90;;;;;;5056422;28;20034;-81
2021/05/06 13:09:01;;;;;;;4.75;1.00;;;10.50;99.90;;;;;;5056223;28;20036;-82
2021/05/06 13:11:28;;;;;;;4.15;1.38;;;10.50;99.90;;;;;;5056706;28;20010;-82
2021/05/06 13:13:55;;;;;;;2.50;1.17;;;10.30;99.90;;;;;;5049556;28;20436;-82
2021/05/06 13:16:46;;;;;;;0.63;0.63;;;10.30;99.90;;;;;;5043731;28;20037;-82
2021/05/06 13:19:16;;;;;;;1.33;1.00;;;10.30;99.90;;;;;;5043091;28;20377;-83
2021/05/06 13:21:54;;;;;;;1.60;0.80;;;10.20;99.90;;;;;;5042819;28;20033;-83
2021/05/06 13:24:20;;;;;;;2.63;1.00;;;10.20;99.90;;;;;;5043759;28;20028;-82
2021/05/06 13:26:46;;;;;;;1.38;0.90;;;10.10;1.00;;;;;;5051234;28;20495;-83
2021/05/06 13:29:17;;;;;;;2.53;0.90;;;10.00;1.00;;;;;;5048219;28;20309;-83
2021/05/06 13:31:49;;;;;;;;;;;9.90;1.00;;;;;;5058195;28;20029;-82
2021/05/06 13:34:23;;;;;;;1.60;1.40;;;9.90;1.00;;;;;;5049128;28;19904;-82
2021/05/06 13:36:49;;;;;;;1.90;1.30;;;9.90;1.00;;;;;;5044586;28;20392;-82
2021/05/06 13:39:16;;;;;;;1.27;1.05;;;9.90;1.00;;;;;;5044564;28;20029;-83
2021/05/06 13:41:47;;;;;;;5.18;1.80;;;9.80;1.00;;;;;;5044491;28;20029;-83
2021/05/06 13:44:18;;;;;;;1.42;1.33;;;9.90;1.00;;;;;;5043652;28;20053;-81
2021/05/06 13:46:53;;;;;;;;;;;9.90;1.00;;;;;;5044834;28;20030;-83
2021/05/06 13:49:32;;;;;;;2.03;1.33;;;9.90;1.00;;;;;;5068074;28;19928;-84
2021/05/06 13:51:59;;;;;;;4.43;1.38;;;9.90;1.00;;;;;;5050404;28;20041;-83
2021/05/06 13:54:27;;;;;;;3.05;1.38;;;9.80;1.00;;;;;;5050849;28;20098;-85
2021/05/06 13:56:53;;;;;;;3.92;1.30;;;9.80;1.00;;;;;;5047666;28;20097;-82
2021/05/06 13:59:19;;;;;;;2.40;1.20;;;9.90;1.00;;;;;;5047296;28;20026;-83
2021/05/06 14:01:52;;;;;;;2.15;1.65;;;9.90;1.00;;;;;;5038356;28;20029;-83
2021/05/06 14:04:18;;;;;;;1.75;1.40;;;9.90;1.00;;;;;;5047695;28;20080;-81
2021/05/06 14:06:43;;;;;;;1.30;1.20;;;9.90;1.00;;;;;;5050435;28;20021;-81
2021/05/06 14:09:14;;;;;;;3.40;1.65;;;9.90;1.00;;;;;;5050830;28;20029;-81
2021/05/06 14:11:40;;;;;;;1.25;1.15;;;9.90;1.00;;;;;;5049936;28;20089;-83
2021/05/06 14:14:06;;;;;;;3.08;1.33;;;9.70;1.00;;;;;;5049101;28;20022;-82
2021/05/06 14:16:32;;;;;;;2.75;1.10;;;9.80;1.00;;;;;;5049454;28;20079;-83
2021/05/06 14:18:58;;;;;;;1.50;1.20;;;9.70;1.00;;;;;;5049741;28;20037;-80
2021/05/06 14:21:25;;;;;;;3.03;1.70;;;9.90;1.00;;;;;;5050091;28;20064;-80
2021/05/06 14:23:51;;;;;;;2.75;1.48;;;9.90;1.00;;;;;;5047029;28;20491;-83
2021/05/06 14:26:21;;;;;;;2.00;1.55;;;10.50;1.00;;;;;;5047268;28;20034;-83
2021/05/06 14:28:47;;;;;;;2.33;1.50;;;10.40;1.00;;;;;;5044966;28;20047;-83
2021/05/06 14:31:13;;;;;;;2.15;1.70;;;10.20;1.00;;;;;;5042924;28;20132;-82
2021/05/06 14:33:39;;;;;;;1.55;1.45;;;10.60;1.00;;;;;;5035745;28;20026;-80
2021/05/06 14:36:06;;;;;;;3.85;2.40;;;10.80;1.00;;;;;;5025161;28;20018;-77
2021/05/06 14:38:32;;;;;;;5.40;2.08;;;10.50;1.00;;;;;;5035467;28;20029;-78
2021/05/06 14:40:58;;;;;;;2.80;1.85;;;10.20;1.00;;;;;;5002276;28;20045;-77
2021/05/06 14:43:24;;;;;;;2.00;1.35;;;10.10;1.00;;;;;;5040989;28;20040;-77
2021/05/06 14:45:49;;;;;;;2.25;1.42;;;10.00;1.00;;;;;;5039152;28;20036;-78
2021/05/06 14:48:15;;;;;;;2.58;1.58;;;10.00;1.00;;;;;;5033688;28;20053;-76
2021/05/06 14:50:41;;;;;;;5.55;2.28;;;10.00;1.00;;;;;;5024502;28;20048;-76
2021/05/06 14:53:06;;;;;;;4.07;1.38;;;9.90;1.00;;;;;;5023042;28;20018;-75
2021/05/06 14:55:33;;;;;;;2.15;1.52;;;9.90;1.00;;;;;;5019159;28;20026;-74
2021/05/06 14:57:58;;;;;;;2.67;1.40;;;10.00;1.00;;;;;;5029219;28;20068;-74
2021/05/06 15:00:24;;;;;;;2.88;1.02;;;10.00;1.00;;;;;;5031555;28;20022;-73
2021/05/06 15:02:50;;;;;;;0.70;0.70;;;10.00;1.00;;;;;;5021767;28;20125;-74
2021/05/06 15:05:17;;;;;;;0.60;0.60;;;9.90;1.00;;;;;;5011894;28;20087;-74
2021/05/06 15:07:43;;;;;;;4.53;0.95;;;9.90;1.00;;;;;;5012286;28;20021;-72
2021/05/06 15:10:10;;;;;;;1.10;0.60;;;9.90;1.00;;;;;;5018304;28;20042;-72
2021/05/06 15:12:35;;;;;;;1.33;0.70;;;9.90;1.00;;;;;;5025172;28;20112;-74
2021/05/06 15:15:03;;;;;;;0.60;0.60;;;9.90;1.00;;;;;;5025880;28;20030;-73
2021/05/06 15:17:29;;;;;;;5.65;4.25;;;9.90;1.00;;;;;;5023701;28;20014;-73
2021/05/06 15:19:54;;;;;;;13.35;9.73;;;9.90;1.00;;;;;;5016755;28;20022;-73
2021/05/06 15:22:21;;;;;;;2.42;1.73;;;10.00;1.00;;;;;;5016285;28;20386;-73
2021/05/06 15:24:47;;;;;;;2.00;0.98;;;10.00;1.00;;;;;;5016875;28;20089;-74
2021/05/06 15:27:13;;;;;;;1.83;0.95;;;10.00;1.00;;;;;;5015089;28;20057;-73
2021/05/06 15:29:40;;;;;;;2.13;1.65;;;10.00;1.00;;;;;;5035776;28;20025;-73
2021/05/06 15:32:05;;;;;;;3.33;1.90;;;9.90;1.00;;;;;;5019849;28;20108;-74
2021/05/06 15:34:31;;;;;;;1.60;0.70;;;9.80;1.00;;;;;;5015086;28;20053;-74
2021/05/06 15:36:57;;;;;;;2.17;0.60;;;9.90;1.00;;;;;;5013170;28;20080;-73
2021/05/06 15:39:22;;;;;;;3.15;1.02;;;9.80;1.00;;;;;;5014768;28;20057;-73
2021/05/06 15:41:48;;;;;;;1.30;0.80;;;9.70;1.00;;;;;;5015074;28;20049;-73
2021/05/06 15:44:13;;;;;;;2.92;2.28;;;9.70;1.00;;;;;;5017063;28;20113;-73
2021/05/06 15:46:39;;;;;;;2.50;1.55;;;9.70;1.00;;;;;;5017720;28;20022;-73
2021/05/06 15:49:05;;;;;;;1.45;1.23;;;9.70;1.00;;;;;;5015969;28;20014;-73
2021/05/06 15:51:31;;;;;;;1.50;1.35;;;9.70;1.00;;;;;;5017466;28;20022;-73
2021/05/06 15:53:58;;;;;;;2.17;1.00;;;9.80;1.00;;;;;;5017452;28;20022;-74
2021/05/06 15:56:24;;;;;;;1.20;0.88;;;9.90;1.00;;;;;;5017647;28;20022;-74
2021/05/06 15:58:52;;;;;;;1.95;1.02;;;10.00;1.00;;;;;;5025022;28;20381;-74
2021/05/06 16:01:20;;;;;;;1.23;1.05;;;9.90;1.00;;;;;;5039309;28;20025;-74
2021/05/06 16:03:49;;;;;;;1.58;0.82;;;9.90;1.00;;;;;;5044059;28;20511;-74
2021/05/06 16:06:15;;;;;;;1.35;1.23;;;10.00;1.00;;;;;;5041561;28;20436;-73
2021/05/06 16:08:41;;;;;;;1.45;1.17;;;10.00;1.00;;;;;;5042911;28;20021;-73
2021/05/06 16:11:07;;;;;;;1.38;0.90;;;10.10;1.00;;;;;;5038122;28;20029;-74
2021/05/06 16:13:32;;;;;;;1.40;0.80;;;10.10;1.00;;;;;;5051078;28;20024;-74
2021/05/06 16:15:58;;;;;;;3.58;1.08;;;10.10;1.00;;;;;;5038894;28;20064;-74
2021/05/06 16:18:24;;;;;;;1.98;1.13;;;10.10;1.00;;;;;;5040900;28;20022;-74
2021/05/06 16:20:51;;;;;;;2.88;0.80;;;10.10;1.00;;;;;;5043140;28;20109;-74
2021/05/06 16:23:17;;;;;;;0.90;0.80;;;10.20;1.00;;;;;;5046401;28;20040;-74
2021/05/06 16:25:42;;;;;;;0.77;0.77;;;10.10;1.00;;;;;;5048300;28;20021;-73
2021/05/06 16:28:09;;;;;;;1.38;0.90;;;10.20;1.00;;;;;;5043351;28;20052;-71
2021/05/06 16:30:35;;;;;;;2.33;0.93;;;10.20;1.00;;;;;;5041675;28;20029;-72
2021/05/06 16:33:04;;;;;;;0.70;0.70;;;10.40;1.00;;;;;;5042859;28;20052;-74
2021/05/06 16:35:33;;;;;;;3.55;1.10;;;10.40;1.00;;;;;;5041444;28;20096;-74
2021/05/06 16:38:02;;;;;;;0.80;0.77;;;10.50;1.00;;;;;;5041408;28;20021;-73
2021/05/06 16:45:42;;;;;;;1.48;1.00;;;10.50;1.00;;;;;;5042109;28;20028;-73
2021/05/06 16:48:12;;;;;;;1.65;1.10;;;10.40;1.00;;;;;;5042020;28;20033;-73